createdAt,value
2018-10-06T00:00:23.209Z,80.60
2018-10-06T00:02:52.214Z,79.72
2018-10-06T00:05:21.345Z,79.86
2018-10-06T00:07:50.372Z,81.81
2018-10-06T00:10:19.326Z,81.72
2018-10-06T00:12:48.293Z,83.01
2018-10-06T00:15:17.604Z,84.16
2018-10-06T00:17:46.618Z,81.96
2018-10-06T00:20:15.537Z,81.98
2018-10-06T00:22:44.595Z,83.62
2018-10-06T00:25:13.646Z,90.19
2018-10-06T00:27:43.330Z,89.57
2018-10-06T00:30:12.605Z,93.28
2018-10-06T00:32:41.500Z,96.94
2018-10-06T00:35:10.414Z,100.00
2018-10-06T00:37:39.343Z,100.00
2018-10-06T00:40:08.475Z,100.00
2018-10-06T00:42:37.355Z,97.22
2018-10-06T00:45:07.260Z,97.84
2018-10-06T00:47:36.175Z,99.45
2018-10-06T00:50:05.084Z,97.26
2018-10-06T00:52:34.415Z,100.00
2018-10-06T00:55:03.736Z,100.00
2018-10-06T00:57:33.067Z,94.86
2018-10-06T01:00:02.460Z,97.86
2018-10-06T01:02:31.385Z,100.00
2018-10-06T01:05:00.424Z,100.00
2018-10-06T01:07:29.594Z,98.39
2018-10-06T01:09:58.866Z,96.97
2018-10-06T01:12:28.499Z,99.35
2018-10-06T01:14:57.921Z,99.52
2018-10-06T01:17:26.774Z,100.00
2018-10-06T01:19:56.027Z,100.00
2018-10-06T01:22:25.190Z,100.00
2018-10-06T01:24:54.383Z,99.73
2018-10-06T01:27:23.710Z,99.76
2018-10-06T01:29:52.684Z,97.08
2018-10-06T01:32:22.041Z,99.32
2018-10-06T01:34:51.027Z,98.74
2018-10-06T01:37:20.244Z,100.00
2018-10-06T01:39:49.199Z,100.00
2018-10-06T01:42:18.367Z,100.00
2018-10-06T01:44:47.617Z,100.00
2018-10-06T01:47:16.648Z,100.00
2018-10-06T01:49:45.552Z,100.00
2018-10-06T01:52:14.937Z,100.00
2018-10-06T01:54:44.198Z,100.00
2018-10-06T01:57:13.148Z,99.93
2018-10-06T01:59:42.438Z,99.39
2018-10-06T02:02:11.387Z,98.49
2018-10-06T02:04:40.343Z,97.30
2018-10-06T02:07:09.299Z,95.90
2018-10-06T02:09:38.142Z,93.82
2018-10-06T02:12:07.504Z,93.50
2018-10-06T02:14:36.626Z,93.99
2018-10-06T02:17:05.617Z,93.84
2018-10-06T02:19:34.507Z,95.29
2018-10-06T02:22:03.927Z,96.38
2018-10-06T02:24:33.255Z,94.72
2018-10-06T02:27:02.215Z,98.36
2018-10-06T02:29:31.548Z,98.50
2018-10-06T02:32:00.606Z,98.71
2018-10-06T02:34:29.452Z,99.81
2018-10-06T02:36:58.507Z,100.00
2018-10-06T02:39:27.284Z,100.00
2018-10-06T02:41:56.163Z,100.00
2018-10-06T02:44:25.480Z,100.00
2018-10-06T02:46:54.471Z,100.00
2018-10-06T02:49:23.301Z,99.65
2018-10-06T02:51:52.508Z,99.72
2018-10-06T02:54:21.807Z,100.00
2018-10-06T02:56:50.877Z,100.00
2018-10-06T02:59:19.972Z,100.00
2018-10-06T03:01:48.896Z,100.00
2018-10-06T03:04:17.767Z,100.00
2018-10-06T03:06:47.019Z,98.46
2018-10-06T03:09:15.950Z,97.19
2018-10-06T03:11:56.761Z,96.58
2018-10-06T03:14:25.938Z,94.51
2018-10-06T03:16:55.173Z,95.74
2018-10-06T03:19:24.572Z,96.20
2018-10-06T03:21:53.464Z,95.04
2018-10-06T03:24:22.358Z,95.82
2018-10-06T03:26:51.579Z,96.03
2018-10-06T03:29:20.586Z,95.55
2018-10-06T03:31:49.460Z,95.21
2018-10-06T03:34:18.386Z,96.71
2018-10-06T03:36:47.462Z,97.35
2018-10-06T03:39:16.466Z,95.88
2018-10-06T03:41:45.735Z,95.91
2018-10-06T03:44:14.602Z,96.87
2018-10-06T03:46:43.556Z,99.46
2018-10-06T03:49:12.549Z,100.00
2018-10-06T03:51:41.518Z,100.00
2018-10-06T03:54:12.242Z,100.00
2018-10-06T03:56:43.093Z,100.00
2018-10-06T03:59:12.121Z,100.00
2018-10-06T04:01:41.008Z,100.00
2018-10-06T04:04:10.323Z,100.00
2018-10-06T04:06:39.247Z,100.00
2018-10-06T04:09:09.237Z,100.00
2018-10-06T04:11:38.365Z,99.27
2018-10-06T04:14:07.867Z,98.60
2018-10-06T04:16:36.815Z,97.57
2018-10-06T04:19:06.141Z,99.40
2018-10-06T04:21:51.363Z,99.86
2018-10-06T04:24:20.276Z,100.00
2018-10-06T04:26:49.266Z,100.00
2018-10-06T04:29:18.167Z,99.96
2018-10-06T04:31:47.399Z,100.00
2018-10-06T04:34:16.330Z,100.00
2018-10-06T04:36:45.254Z,100.00
2018-10-06T04:39:14.420Z,100.00
2018-10-06T04:41:43.332Z,100.00
2018-10-06T04:44:12.330Z,100.00
2018-10-06T04:46:41.342Z,100.00
2018-10-06T04:49:10.282Z,100.00
2018-10-06T04:51:39.206Z,100.00
2018-10-06T04:54:09.554Z,100.00
2018-10-06T04:56:38.476Z,100.00
2018-10-06T04:59:07.407Z,100.00
2018-10-06T05:01:36.289Z,100.00
2018-10-06T05:04:05.262Z,100.00
2018-10-06T05:06:34.100Z,100.00
2018-10-06T05:09:03.350Z,100.00
2018-10-06T05:11:32.420Z,100.00
2018-10-06T05:14:01.341Z,100.00
2018-10-06T05:16:30.360Z,100.00
2018-10-06T05:18:59.374Z,100.00
2018-10-06T05:21:28.339Z,100.00
2018-10-06T05:23:58.099Z,100.00
2018-10-06T05:26:26.984Z,100.00
2018-10-06T05:28:55.958Z,100.00
2018-10-06T05:31:24.913Z,100.00
2018-10-06T05:33:53.820Z,100.00
2018-10-06T05:36:22.682Z,100.00
2018-10-06T05:38:51.853Z,100.00
2018-10-06T05:41:20.752Z,100.00
2018-10-06T05:43:49.641Z,100.00
2018-10-06T05:46:18.672Z,100.00
2018-10-06T05:48:48.487Z,100.00
2018-10-06T05:51:17.374Z,100.00
2018-10-06T05:53:46.778Z,100.00
2018-10-06T05:56:15.766Z,100.00
2018-10-06T05:58:44.701Z,100.00
2018-10-06T06:01:13.741Z,100.00
2018-10-06T06:03:42.775Z,100.00
2018-10-06T06:06:12.045Z,100.00
2018-10-06T06:08:41.348Z,100.00
2018-10-06T06:11:10.241Z,100.00
2018-10-06T06:13:39.107Z,100.00
2018-10-06T06:16:09.475Z,100.00
2018-10-06T06:18:38.436Z,100.00
2018-10-06T06:21:07.499Z,100.00
2018-10-06T06:23:36.666Z,100.00
2018-10-06T06:26:05.549Z,100.00
2018-10-06T06:28:34.395Z,100.00
2018-10-06T06:31:03.325Z,100.00
2018-10-06T06:33:32.874Z,100.00
2018-10-06T06:36:01.795Z,100.00
2018-10-06T06:38:31.192Z,100.00
2018-10-06T06:41:01.010Z,100.00
2018-10-06T06:43:29.897Z,100.00
2018-10-06T06:45:59.182Z,100.00
2018-10-06T06:48:28.532Z,100.00
2018-10-06T06:50:57.438Z,100.00
2018-10-06T06:53:26.437Z,100.00
2018-10-06T06:55:55.269Z,100.00
2018-10-06T06:58:24.248Z,100.00
2018-10-06T07:00:53.212Z,100.00
2018-10-06T07:03:22.346Z,100.00
2018-10-06T07:05:51.258Z,100.00
2018-10-06T07:08:20.243Z,100.00
2018-10-06T07:10:50.139Z,100.00
2018-10-06T07:13:19.094Z,100.00
2018-10-06T07:15:48.184Z,100.00
2018-10-06T07:18:17.133Z,100.00
2018-10-06T07:20:46.037Z,100.00
2018-10-06T07:23:14.976Z,100.00
2018-10-06T07:25:43.820Z,100.00
2018-10-06T07:28:12.737Z,100.00
2018-10-06T07:30:41.641Z,100.00
2018-10-06T07:33:10.555Z,100.00
2018-10-06T07:35:39.535Z,100.00
2018-10-06T07:38:08.626Z,100.00
2018-10-06T07:40:37.578Z,100.00
2018-10-06T07:43:06.702Z,100.00
2018-10-06T07:45:35.591Z,100.00
2018-10-06T07:48:04.516Z,99.60
2018-10-06T07:50:33.358Z,99.14
2018-10-06T07:53:02.523Z,98.97
2018-10-06T07:55:31.452Z,98.10
2018-10-06T07:58:00.475Z,99.68
2018-10-06T08:00:29.694Z,97.49
2018-10-06T08:02:58.511Z,95.29
2018-10-06T08:05:27.359Z,92.43
2018-10-06T08:07:56.494Z,90.44
2018-10-06T08:10:25.388Z,93.71
2018-10-06T08:12:54.289Z,94.92
2018-10-06T08:15:23.165Z,90.47
2018-10-06T08:17:51.994Z,90.40
2018-10-06T08:20:20.892Z,89.48
2018-10-06T08:22:50.192Z,86.23
2018-10-06T08:25:19.116Z,91.83
2018-10-06T08:27:47.999Z,85.96
2018-10-06T08:30:16.863Z,81.35
2018-10-06T08:32:45.785Z,80.59
2018-10-06T08:35:14.691Z,83.78
2018-10-06T08:37:43.695Z,84.72
2018-10-06T08:40:12.698Z,82.23
2018-10-06T08:42:41.601Z,80.03
2018-10-06T08:45:10.994Z,76.19
2018-10-06T08:47:39.866Z,79.12
2018-10-06T08:50:08.907Z,76.36
2018-10-06T08:52:38.182Z,81.85
2018-10-06T08:55:07.532Z,81.83
2018-10-06T08:57:36.523Z,82.44
2018-10-06T09:00:05.631Z,73.27
2018-10-06T09:02:34.657Z,76.13
2018-10-06T09:05:03.569Z,74.22
2018-10-06T09:07:32.794Z,72.99
2018-10-06T09:10:01.822Z,68.33
2018-10-06T09:12:30.709Z,66.42
2018-10-06T09:15:00.389Z,72.71
2018-10-06T09:17:29.197Z,67.33
2018-10-06T09:19:58.081Z,67.62
2018-10-06T09:22:27.204Z,74.67
2018-10-06T09:24:56.017Z,72.04
2018-10-06T09:27:25.011Z,65.85
2018-10-06T09:29:53.996Z,66.16
2018-10-06T09:32:22.947Z,67.61
2018-10-06T09:34:51.789Z,69.37
2018-10-06T09:37:21.011Z,65.95
2018-10-06T09:39:49.828Z,63.95
2018-10-06T09:42:18.888Z,66.31
2018-10-06T09:44:47.912Z,68.37
2018-10-06T09:47:16.777Z,62.75
2018-10-06T09:49:46.068Z,63.23
2018-10-06T09:52:15.336Z,64.70
2018-10-06T09:54:45.160Z,64.53
2018-10-06T09:57:14.108Z,66.54
2018-10-06T09:59:43.006Z,72.58
2018-10-06T10:03:18.496Z,74.44
2018-10-06T10:05:54.757Z,63.76
2018-10-06T10:08:23.578Z,67.43
2018-10-06T10:10:52.444Z,65.47
2018-10-06T10:13:21.599Z,68.37
2018-10-06T10:15:50.455Z,64.75
2018-10-06T10:18:19.634Z,62.17
2018-10-06T10:20:48.491Z,72.14
2018-10-06T10:23:17.388Z,66.78
2018-10-06T10:25:46.307Z,65.80
2018-10-06T10:28:15.212Z,61.04
2018-10-06T10:30:44.088Z,58.97
2018-10-06T10:33:13.195Z,65.27
2018-10-06T10:35:42.575Z,62.77
2018-10-06T10:38:11.546Z,65.82
2018-10-06T10:40:40.503Z,69.93
2018-10-06T10:43:09.693Z,59.74
2018-10-06T10:45:39.619Z,64.55
2018-10-06T10:48:08.517Z,59.98
2018-10-06T10:50:37.896Z,57.81
2018-10-06T10:53:07.568Z,59.68
2018-10-06T10:55:37.638Z,62.58
2018-10-06T10:58:06.910Z,56.40
2018-10-06T11:00:35.862Z,59.42
2018-10-06T11:03:04.685Z,53.51
2018-10-06T11:05:34.093Z,59.89
2018-10-06T11:08:02.996Z,54.99
2018-10-06T11:10:31.833Z,50.53
2018-10-06T11:13:00.998Z,56.86
2018-10-06T11:15:29.963Z,56.68
2018-10-06T11:17:58.766Z,64.63
2018-10-06T11:20:27.992Z,65.26
2018-10-06T11:22:56.902Z,57.80
2018-10-06T11:25:25.739Z,58.10
2018-10-06T11:27:54.909Z,65.69
2018-10-06T11:30:23.744Z,65.28
2018-10-06T11:32:52.524Z,56.64
2018-10-06T11:35:21.428Z,49.42
2018-10-06T11:37:50.412Z,48.69
2018-10-06T11:40:19.244Z,48.99
2018-10-06T11:42:48.123Z,53.14
2018-10-06T11:45:16.968Z,53.38
2018-10-06T11:47:45.804Z,55.01
2018-10-06T11:50:15.098Z,55.11
2018-10-06T11:52:44.401Z,58.25
2018-10-06T11:55:13.265Z,62.22
2018-10-06T11:57:42.433Z,55.97
2018-10-06T12:00:11.447Z,59.81
2018-10-06T12:02:40.171Z,55.73
2018-10-06T12:05:09.964Z,57.98
2018-10-06T12:07:39.251Z,49.60
2018-10-06T12:10:08.897Z,54.57
2018-10-06T12:12:37.784Z,50.49
2018-10-06T12:15:06.981Z,50.20
2018-10-06T12:17:35.767Z,50.88
2018-10-06T12:20:04.705Z,52.10
2018-10-06T12:22:33.558Z,52.42
2018-10-06T12:25:02.368Z,54.30
2018-10-06T12:27:32.771Z,52.91
2018-10-06T12:30:01.573Z,52.00
2018-10-06T12:32:30.696Z,52.61
2018-10-06T12:34:59.571Z,54.55
2018-10-06T12:37:28.381Z,59.07
2018-10-06T12:39:57.157Z,52.11
2018-10-06T12:42:26.315Z,48.86
2018-10-06T12:44:56.070Z,48.71
2018-10-06T12:47:24.875Z,49.18
2018-10-06T12:49:54.031Z,50.04
2018-10-06T12:52:22.899Z,49.25
2018-10-06T12:54:51.720Z,48.18
2018-10-06T12:57:21.448Z,50.29
2018-10-06T12:59:50.222Z,49.88
2018-10-06T13:02:19.037Z,53.55
2018-10-06T13:04:47.922Z,53.37
2018-10-06T13:07:16.784Z,53.07
2018-10-06T13:09:45.562Z,51.06
2018-10-06T13:12:14.448Z,51.08
2018-10-06T13:14:43.409Z,50.80
2018-10-06T13:17:12.199Z,49.34
2018-10-06T13:19:41.094Z,50.20
2018-10-06T13:22:09.955Z,51.19
2018-10-06T13:24:38.808Z,50.37
2018-10-06T13:27:07.895Z,53.56
2018-10-06T13:29:36.806Z,54.25
2018-10-06T13:32:05.730Z,54.34
2018-10-06T13:34:34.887Z,49.69
2018-10-06T13:37:03.812Z,48.68
2018-10-06T13:39:32.698Z,48.68
2018-10-06T13:42:01.557Z,48.16
2018-10-06T13:44:30.418Z,46.82
2018-10-06T13:46:59.279Z,48.76
2018-10-06T13:49:28.440Z,49.52
2018-10-06T13:51:57.700Z,51.29
2018-10-06T13:54:26.568Z,50.40
2018-10-06T13:56:55.578Z,49.68
2018-10-06T13:59:24.352Z,52.44
2018-10-06T14:01:53.166Z,58.37
2018-10-06T14:04:22.009Z,54.29
2018-10-06T14:06:50.910Z,55.84
2018-10-06T14:09:19.770Z,57.14
2018-10-06T14:11:48.648Z,54.47
2018-10-06T14:14:17.868Z,50.48
2018-10-06T14:16:46.737Z,48.68
2018-10-06T14:19:15.905Z,52.70
2018-10-06T14:21:45.130Z,53.65
2018-10-06T14:24:14.660Z,54.28
2018-10-06T14:26:43.549Z,58.30
2018-10-06T14:29:12.380Z,55.94
2018-10-06T14:31:41.249Z,58.75
2018-10-06T14:34:10.184Z,55.66
2018-10-06T14:36:39.063Z,53.65
2018-10-06T14:39:09.771Z,52.82
2018-10-06T14:41:38.741Z,52.22
2018-10-06T14:44:07.825Z,53.13
2018-10-06T14:46:36.659Z,57.76
2018-10-06T14:49:05.631Z,60.04
2018-10-06T14:51:34.744Z,61.07
2018-10-06T14:54:03.477Z,62.22
2018-10-06T14:56:32.288Z,59.32
2018-10-06T14:59:01.081Z,52.98
2018-10-06T15:01:29.911Z,56.54
2018-10-06T15:03:59.080Z,54.37
2018-10-06T15:06:28.564Z,52.07
2018-10-06T15:08:57.447Z,55.86
2018-10-06T15:11:26.516Z,56.94
2018-10-06T15:13:55.310Z,57.44
2018-10-06T15:16:24.429Z,63.22
2018-10-06T15:18:53.863Z,66.25
2018-10-06T15:21:22.768Z,64.38
2018-10-06T15:23:51.536Z,65.50
2018-10-06T15:26:20.429Z,68.16
2018-10-06T15:28:49.248Z,66.23
2018-10-06T15:31:18.487Z,65.14
2018-10-06T15:33:47.660Z,65.42
2018-10-06T15:36:16.484Z,65.77
2018-10-06T15:38:45.301Z,65.65
2018-10-06T15:41:14.447Z,65.76
2018-10-06T15:43:43.278Z,67.69
2018-10-06T15:46:12.114Z,67.00
2018-10-06T15:48:41.650Z,67.72
2018-10-06T15:51:10.611Z,68.68
2018-10-06T15:53:39.331Z,67.79
2018-10-06T15:56:08.193Z,68.25
2018-10-06T15:58:37.010Z,69.33
2018-10-06T16:01:06.258Z,68.58
2018-10-06T16:03:36.734Z,69.30
2018-10-06T16:06:06.477Z,68.76
2018-10-06T16:08:35.469Z,69.32
2018-10-06T16:11:04.665Z,69.80
2018-10-06T16:13:33.496Z,69.76
2018-10-06T16:16:02.323Z,70.07
2018-10-06T16:18:31.220Z,71.34
2018-10-06T16:20:59.985Z,70.96
2018-10-06T16:23:28.805Z,71.99
2018-10-06T16:25:57.670Z,74.99
2018-10-06T16:28:26.530Z,71.40
2018-10-06T16:30:55.349Z,71.34
2018-10-06T16:33:24.731Z,72.31
2018-10-06T16:35:53.748Z,72.28
2018-10-06T16:38:22.781Z,72.37
2018-10-06T16:40:52.008Z,72.33
2018-10-06T16:43:20.848Z,71.92
2018-10-06T16:45:50.539Z,71.49
2018-10-06T16:48:19.739Z,71.18
2018-10-06T16:50:48.683Z,70.98
2018-10-06T16:53:17.534Z,69.25
2018-10-06T16:55:46.651Z,70.48
2018-10-06T16:58:16.518Z,69.77
2018-10-06T17:00:45.839Z,69.65
2018-10-06T17:03:16.852Z,68.90
2018-10-06T17:05:47.561Z,69.12
2018-10-06T17:08:21.586Z,68.77
2018-10-06T17:10:51.619Z,68.48
2018-10-06T17:13:20.866Z,69.81
2018-10-06T17:15:52.160Z,69.28
2018-10-06T17:18:21.053Z,69.80
2018-10-06T17:20:50.645Z,70.18
2018-10-06T17:23:20.300Z,69.70
2018-10-06T17:25:49.408Z,69.72
2018-10-06T17:28:18.248Z,70.56
2018-10-06T17:30:48.628Z,70.18
2018-10-06T17:33:19.153Z,70.59
2018-10-06T17:35:49.759Z,70.49
2018-10-06T17:38:18.974Z,70.88
2018-10-06T17:40:48.331Z,70.24
2018-10-06T17:43:17.602Z,69.79
2018-10-06T17:45:51.357Z,69.95
2018-10-06T17:48:25.946Z,69.60
2018-10-06T17:51:00.223Z,69.27
2018-10-06T17:53:34.043Z,68.87
2018-10-06T17:56:08.141Z,68.73
2018-10-06T17:58:43.764Z,68.25
2018-10-06T18:01:18.351Z,68.44
2018-10-06T18:03:51.697Z,68.09
2018-10-06T18:06:23.391Z,67.97
2018-10-06T18:08:56.627Z,71.16
2018-10-06T18:11:31.438Z,71.99
2018-10-06T18:14:05.200Z,70.48
2018-10-06T18:16:39.587Z,69.83
2018-10-06T18:19:14.230Z,75.70
2018-10-06T18:21:49.210Z,75.58
2018-10-06T18:24:26.544Z,77.63
2018-10-06T18:27:00.820Z,80.94
2018-10-06T18:29:34.210Z,81.79
2018-10-06T18:32:05.539Z,85.27
2018-10-06T18:34:38.791Z,83.29
2018-10-06T18:37:09.739Z,91.33
2018-10-06T18:39:44.000Z,95.91
2018-10-06T18:42:14.239Z,84.22
2018-10-06T18:44:43.594Z,83.47
2018-10-06T18:47:13.242Z,84.66
2018-10-06T18:49:43.415Z,84.45
2018-10-06T18:52:14.079Z,84.55
2018-10-06T18:54:45.429Z,85.74
2018-10-06T18:57:14.940Z,86.44
2018-10-06T18:59:48.006Z,88.21
2018-10-06T19:02:21.127Z,90.43
2018-10-06T19:04:54.619Z,89.02
2018-10-06T19:07:27.340Z,97.80
2018-10-06T19:09:58.418Z,93.01
2018-10-06T19:12:28.744Z,96.97
2018-10-06T19:14:57.939Z,100.00
2018-10-06T19:17:26.774Z,99.79
2018-10-06T19:19:55.715Z,100.00
2018-10-06T19:22:24.654Z,99.96
2018-10-06T19:24:54.028Z,100.00
2018-10-06T19:27:24.276Z,100.00
2018-10-06T19:29:54.407Z,100.00
2018-10-06T19:32:23.862Z,100.00
2018-10-06T19:34:53.029Z,100.00
2018-10-06T19:37:22.019Z,100.00
2018-10-06T19:39:51.334Z,100.00
2018-10-06T19:42:20.503Z,100.00
2018-10-06T19:44:50.204Z,100.00
2018-10-06T19:47:19.689Z,100.00
2018-10-06T19:49:48.845Z,100.00
2018-10-06T19:52:17.798Z,100.00
2018-10-06T19:54:46.814Z,100.00
2018-10-06T19:57:16.342Z,100.00
2018-10-06T19:59:45.636Z,100.00
2018-10-06T20:02:14.550Z,100.00
2018-10-06T20:04:43.736Z,100.00
2018-10-06T20:07:12.681Z,100.00
2018-10-06T20:09:41.516Z,100.00
2018-10-06T20:12:11.061Z,100.00
2018-10-06T20:14:39.890Z,100.00
2018-10-06T20:17:08.688Z,100.00
2018-10-06T20:19:37.906Z,100.00
2018-10-06T20:22:10.275Z,100.00
2018-10-06T20:24:39.138Z,100.00
2018-10-06T20:27:08.209Z,100.00
2018-10-06T20:29:37.648Z,100.00
2018-10-06T20:32:07.206Z,100.00
2018-10-06T20:34:36.393Z,100.00
2018-10-06T20:37:05.660Z,100.00
2018-10-06T20:39:34.602Z,100.00
2018-10-06T20:42:03.465Z,100.00
2018-10-06T20:44:32.345Z,100.00
2018-10-06T20:47:01.454Z,100.00
2018-10-06T20:49:30.535Z,100.00
2018-10-06T20:51:59.369Z,100.00
2018-10-06T20:54:28.294Z,100.00
2018-10-06T20:56:57.184Z,100.00
2018-10-06T20:59:26.055Z,100.00
2018-10-06T21:01:55.720Z,100.00
2018-10-06T21:04:24.595Z,100.00
2018-10-06T21:06:53.399Z,100.00
2018-10-06T21:09:22.338Z,100.00
2018-10-06T21:11:51.166Z,100.00
2018-10-06T21:14:20.121Z,100.00
2018-10-06T21:16:49.361Z,100.00
2018-10-06T21:19:18.225Z,100.00
2018-10-06T21:21:47.033Z,100.00
2018-10-06T21:24:15.976Z,100.00
2018-10-06T21:26:44.829Z,100.00
2018-10-06T21:29:13.703Z,100.00
2018-10-06T21:31:42.838Z,100.00
2018-10-06T21:34:11.683Z,100.00
2018-10-06T21:36:40.572Z,100.00
2018-10-06T21:39:10.489Z,100.00
2018-10-06T21:41:39.368Z,100.00
2018-10-06T21:44:08.225Z,100.00
2018-10-06T21:46:37.374Z,100.00
2018-10-06T21:49:06.239Z,100.00
2018-10-06T21:51:35.128Z,100.00
2018-10-06T21:54:04.083Z,100.00
2018-10-06T21:56:32.875Z,100.00
2018-10-06T21:59:02.598Z,100.00
2018-10-06T22:01:31.601Z,100.00
2018-10-06T22:04:00.423Z,100.00
2018-10-06T22:06:29.627Z,100.00
2018-10-06T22:08:58.521Z,100.00
2018-10-06T22:11:27.396Z,100.00
2018-10-06T22:13:56.302Z,100.00
2018-10-06T22:16:25.701Z,100.00
2018-10-06T22:18:54.555Z,100.00
2018-10-06T22:21:23.461Z,100.00
2018-10-06T22:23:52.600Z,100.00
2018-10-06T22:26:21.483Z,100.00
2018-10-06T22:28:50.935Z,100.00
2018-10-06T22:31:20.058Z,100.00
2018-10-06T22:33:49.347Z,100.00
2018-10-06T22:36:18.251Z,100.00
2018-10-06T22:38:47.581Z,100.00
2018-10-06T22:41:16.390Z,100.00
2018-10-06T22:43:45.697Z,100.00
2018-10-06T22:46:14.791Z,100.00
2018-10-06T22:48:44.121Z,100.00
2018-10-06T22:51:12.973Z,100.00
2018-10-06T22:53:41.881Z,100.00
2018-10-06T22:56:10.750Z,100.00
2018-10-06T22:58:39.659Z,100.00
2018-10-06T23:01:08.805Z,100.00
2018-10-06T23:03:38.028Z,100.00
2018-10-06T23:06:08.028Z,100.00
2018-10-06T23:08:37.198Z,100.00
2018-10-06T23:11:06.549Z,100.00
2018-10-06T23:13:35.733Z,100.00
2018-10-06T23:16:05.326Z,100.00
2018-10-06T23:18:34.136Z,100.00
2018-10-06T23:21:03.893Z,100.00
2018-10-06T23:23:32.744Z,100.00
2018-10-06T23:26:01.586Z,100.00
2018-10-06T23:28:30.883Z,100.00
2018-10-06T23:31:00.316Z,100.00
2018-10-06T23:33:29.230Z,100.00
2018-10-06T23:35:58.188Z,100.00
2018-10-06T23:38:27.438Z,100.00
2018-10-06T23:40:56.346Z,100.00
2018-10-06T23:43:25.242Z,100.00
2018-10-06T23:45:54.375Z,100.00
2018-10-06T23:48:23.238Z,100.00
2018-10-06T23:50:52.079Z,100.00
2018-10-06T23:53:21.342Z,100.00
2018-10-06T23:55:50.144Z,100.00
2018-10-06T23:58:19.014Z,100.00
